createdAt,value
2022-12-12T00:00:42.389Z,3.69
2022-12-12T00:03:09.218Z,3.70
2022-12-12T00:05:35.702Z,3.69
2022-12-12T00:08:02.265Z,3.69
2022-12-12T00:10:28.696Z,3.70
2022-12-12T00:12:55.071Z,3.70
2022-12-12T00:15:21.624Z,3.70
2022-12-12T00:17:47.947Z,3.71
2022-12-12T00:20:14.298Z,3.71
2022-12-12T00:22:40.870Z,3.70
2022-12-12T00:25:07.397Z,3.70
2022-12-12T00:27:34.195Z,3.70
2022-12-12T00:30:00.659Z,3.70
2022-12-12T00:32:27.009Z,3.71
2022-12-12T00:34:53.381Z,3.70
2022-12-12T00:37:19.873Z,3.70
2022-12-12T00:39:46.399Z,3.70
2022-12-12T00:42:12.735Z,3.70
2022-12-12T00:44:39.753Z,3.70
2022-12-12T00:47:06.246Z,3.69
2022-12-12T00:49:32.672Z,3.69
2022-12-12T00:51:59.008Z,3.68
2022-12-12T00:54:25.454Z,3.68
2022-12-12T00:56:51.802Z,3.68
2022-12-12T00:59:19.621Z,3.67
2022-12-12T01:01:46.932Z,3.68
2022-12-12T01:04:13.469Z,3.67
2022-12-12T01:06:40.142Z,3.66
2022-12-12T01:09:06.577Z,3.67
2022-12-12T01:11:32.992Z,3.65
2022-12-12T01:13:59.346Z,3.65
2022-12-12T01:16:26.162Z,3.63
2022-12-12T01:18:52.857Z,3.63
2022-12-12T01:21:20.186Z,3.61
2022-12-12T01:23:47.338Z,3.60
2022-12-12T01:26:20.445Z,3.59
2022-12-12T01:28:47.818Z,3.57
2022-12-12T01:31:14.783Z,3.57
2022-12-12T01:33:45.811Z,3.56
2022-12-12T01:36:18.117Z,3.56
2022-12-12T01:38:46.580Z,3.55
2022-12-12T01:41:13.507Z,3.54
2022-12-12T01:43:40.490Z,3.54
2022-12-12T01:46:24.938Z,3.54
2022-12-12T01:49:11.688Z,3.55
2022-12-12T01:51:40.059Z,3.55
2022-12-12T01:54:10.609Z,3.56
2022-12-12T01:56:39.868Z,3.56
2022-12-12T01:59:08.797Z,3.57
2022-12-12T02:01:35.862Z,3.57
2022-12-12T02:04:02.869Z,3.56
2022-12-12T02:06:29.848Z,3.56
2022-12-12T02:09:00.965Z,3.57
2022-12-12T02:11:32.315Z,3.55
2022-12-12T02:13:59.282Z,3.56
2022-12-12T02:16:42.338Z,3.56
2022-12-12T02:19:30.644Z,3.56
2022-12-12T02:22:35.501Z,3.57
2022-12-12T02:25:23.508Z,3.55
2022-12-12T02:28:05.112Z,3.54
2022-12-12T02:30:45.128Z,3.54
2022-12-12T02:33:30.701Z,3.53
2022-12-12T02:36:30.446Z,3.52
2022-12-12T02:39:22.713Z,3.51
2022-12-12T02:42:26.989Z,3.49
2022-12-12T02:45:35.094Z,3.47
2022-12-12T02:48:13.750Z,3.45
2022-12-12T02:50:41.966Z,3.44
2022-12-12T02:53:08.447Z,3.42
2022-12-12T02:55:36.611Z,3.40
2022-12-12T02:58:04.926Z,3.38
2022-12-12T03:00:40.579Z,3.36
2022-12-12T03:03:49.021Z,3.38
2022-12-12T03:07:14.757Z,3.35
2022-12-12T03:10:02.125Z,3.32
2022-12-12T03:12:35.026Z,3.28
2022-12-12T03:15:10.314Z,3.26
2022-12-12T03:17:44.678Z,3.24
2022-12-12T03:20:29.389Z,3.23
2022-12-12T03:23:05.795Z,3.22
2022-12-12T03:25:47.261Z,3.22
2022-12-12T03:28:34.769Z,3.21
2022-12-12T03:31:06.491Z,3.20
2022-12-12T03:33:56.215Z,3.20
2022-12-12T03:36:27.218Z,3.21
2022-12-12T03:38:59.525Z,3.22
2022-12-12T03:41:36.954Z,3.21
2022-12-12T03:44:34.489Z,3.22
2022-12-12T03:47:11.343Z,3.22
2022-12-12T03:49:47.507Z,3.22
2022-12-12T03:52:39.864Z,3.22
2022-12-12T03:55:16.635Z,3.22
2022-12-12T03:57:57.607Z,3.22
2022-12-12T04:00:24.115Z,3.21
2022-12-12T04:03:00.879Z,3.21
2022-12-12T04:06:05.838Z,3.21
2022-12-12T04:08:34.254Z,3.22
2022-12-12T04:11:31.938Z,3.22
2022-12-12T04:14:41.603Z,3.23
2022-12-12T04:17:13.080Z,3.22
2022-12-12T04:20:14.302Z,3.24
2022-12-12T04:23:10.548Z,3.24
2022-12-12T04:26:11.861Z,3.25
2022-12-12T04:28:43.486Z,3.25
2022-12-12T04:31:13.012Z,3.25
2022-12-12T04:33:48.573Z,3.25
2022-12-12T04:36:18.446Z,3.28
2022-12-12T04:38:47.420Z,3.30
2022-12-12T04:41:17.063Z,3.32
2022-12-12T04:43:47.652Z,3.34
2022-12-12T04:46:18.142Z,3.35
2022-12-12T04:48:53.715Z,3.37
2022-12-12T04:51:31.724Z,3.41
2022-12-12T04:54:13.801Z,3.42
2022-12-12T04:56:45.155Z,3.42
2022-12-12T04:59:11.860Z,3.41
2022-12-12T05:01:53.198Z,3.41
2022-12-12T05:04:55.714Z,3.42
2022-12-12T05:07:40.066Z,3.44
2022-12-12T05:10:12.594Z,3.44
2022-12-12T05:12:59.869Z,3.43
2022-12-12T05:15:28.926Z,3.42
2022-12-12T05:18:07.535Z,3.43
2022-12-12T05:20:34.439Z,3.42
2022-12-12T05:23:00.750Z,3.41
2022-12-12T05:25:27.140Z,3.40
2022-12-12T05:27:53.535Z,3.40
2022-12-12T05:30:20.040Z,3.39
2022-12-12T05:32:46.385Z,3.38
2022-12-12T05:35:12.936Z,3.38
2022-12-12T05:37:39.578Z,3.39
2022-12-12T05:40:08.844Z,3.37
2022-12-12T05:42:35.271Z,3.36
2022-12-12T05:45:01.947Z,3.37
2022-12-12T05:47:28.359Z,3.36
2022-12-12T05:49:54.679Z,3.36
2022-12-12T05:52:21.057Z,3.35
2022-12-12T05:54:47.517Z,3.34
2022-12-12T05:57:13.904Z,3.33
2022-12-12T05:59:40.304Z,3.32
2022-12-12T06:02:06.650Z,3.31
2022-12-12T06:04:33.100Z,3.32
2022-12-12T06:06:59.597Z,3.32
2022-12-12T06:09:25.937Z,3.31
2022-12-12T06:11:52.276Z,3.31
2022-12-12T06:14:18.622Z,3.30
2022-12-12T06:16:44.981Z,3.31
2022-12-12T06:19:11.353Z,3.30
2022-12-12T06:21:38.475Z,3.30
2022-12-12T06:24:06.326Z,3.29
2022-12-12T06:26:32.781Z,3.31
2022-12-12T06:28:59.379Z,3.30
2022-12-12T06:31:25.888Z,3.31
2022-12-12T06:33:52.308Z,3.30
2022-12-12T06:36:24.151Z,3.31
2022-12-12T06:38:52.375Z,3.32
2022-12-12T06:41:19.840Z,3.31
2022-12-12T06:46:19.037Z,3.33
2022-12-12T06:48:46.262Z,3.33
2022-12-12T06:51:29.268Z,3.31
2022-12-12T06:53:56.158Z,3.30
2022-12-12T06:56:24.305Z,3.28
2022-12-12T06:58:51.268Z,3.27
2022-12-12T07:01:21.921Z,3.26
2022-12-12T07:03:49.732Z,3.23
2022-12-12T07:06:17.595Z,3.21
2022-12-12T07:08:43.900Z,3.20
2022-12-12T07:11:20.306Z,3.18
2022-12-12T07:13:46.767Z,3.15
2022-12-12T07:16:13.413Z,3.12
2022-12-12T07:18:39.909Z,3.08
2022-12-12T07:21:08.242Z,3.06
2022-12-12T07:23:35.179Z,3.04
2022-12-12T07:26:12.204Z,3.03
2022-12-12T07:28:38.811Z,3.01
2022-12-12T07:31:07.635Z,3.00
2022-12-12T07:33:43.249Z,2.99
2022-12-12T07:36:12.143Z,2.98
2022-12-12T07:38:38.636Z,2.97
2022-12-12T07:41:11.461Z,2.95
2022-12-12T07:43:43.389Z,2.93
2022-12-12T07:46:14.389Z,2.92
2022-12-12T07:48:40.871Z,2.91
2022-12-12T07:51:07.203Z,2.91
2022-12-12T07:53:33.547Z,2.90
2022-12-12T07:55:59.900Z,2.90
2022-12-12T07:58:26.273Z,2.90
2022-12-12T08:00:52.740Z,2.91
2022-12-12T08:03:19.053Z,2.91
2022-12-12T08:05:45.436Z,2.92
2022-12-12T08:08:11.800Z,2.94
2022-12-12T08:10:39.583Z,2.96
2022-12-12T08:13:06.608Z,2.99
2022-12-12T08:15:33.099Z,3.00
2022-12-12T08:17:59.443Z,3.04
2022-12-12T08:20:25.831Z,3.05
2022-12-12T08:22:52.220Z,3.07
2022-12-12T08:25:18.561Z,3.10
2022-12-12T08:27:44.864Z,3.14
2022-12-12T08:30:11.857Z,3.15
2022-12-12T08:32:38.161Z,3.18
2022-12-12T08:35:05.678Z,3.22
2022-12-12T08:37:32.016Z,3.24
2022-12-12T08:39:58.328Z,3.27
2022-12-12T08:42:24.655Z,3.30
2022-12-12T08:44:51.107Z,3.32
2022-12-12T08:47:17.640Z,3.33
2022-12-12T08:49:44.040Z,3.37
2022-12-12T08:52:10.478Z,3.40
2022-12-12T08:54:38.062Z,3.43
2022-12-12T08:57:04.543Z,3.46
2022-12-12T08:59:30.878Z,3.50
2022-12-12T09:01:57.390Z,3.54
2022-12-12T09:04:23.793Z,3.56
2022-12-12T09:06:50.143Z,3.61
2022-12-12T09:09:16.481Z,3.66
2022-12-12T09:11:43.775Z,3.69
2022-12-12T09:14:10.956Z,3.74
2022-12-12T09:16:37.326Z,3.77
2022-12-12T09:19:03.706Z,3.80
2022-12-12T09:21:30.035Z,3.83
2022-12-12T09:23:56.349Z,3.84
2022-12-12T09:26:22.686Z,3.87
2022-12-12T09:28:49.262Z,3.90
2022-12-12T09:31:15.743Z,3.91
2022-12-12T09:33:43.148Z,3.94
2022-12-12T09:36:11.957Z,3.96
2022-12-12T09:38:38.451Z,3.99
2022-12-12T09:41:15.327Z,4.02
2022-12-12T09:43:57.382Z,4.03
2022-12-12T09:46:29.473Z,4.05
2022-12-12T09:49:03.248Z,4.08
2022-12-12T09:51:29.618Z,4.08
2022-12-12T09:53:56.127Z,4.09
2022-12-12T09:56:56.830Z,4.11
2022-12-12T09:59:40.050Z,4.12
2022-12-12T10:02:09.195Z,4.13
2022-12-12T10:04:47.804Z,4.13
2022-12-12T10:07:52.650Z,4.15
2022-12-12T10:10:36.461Z,4.16
2022-12-12T10:13:06.097Z,4.17
2022-12-12T10:15:38.671Z,4.19
2022-12-12T10:18:09.936Z,4.21
2022-12-12T10:20:45.394Z,4.22
2022-12-12T10:23:19.742Z,4.26
2022-12-12T10:25:55.902Z,4.27
2022-12-12T10:28:25.380Z,4.30
2022-12-12T10:31:23.022Z,4.33
2022-12-12T10:34:17.674Z,4.36
2022-12-12T10:37:17.070Z,4.37
2022-12-12T10:40:13.884Z,4.40
2022-12-12T10:42:55.238Z,4.43
2022-12-12T10:45:38.959Z,4.44
2022-12-12T10:48:05.538Z,4.45
2022-12-12T10:50:38.589Z,4.47
2022-12-12T10:53:09.699Z,4.47
2022-12-12T10:55:49.832Z,4.47
2022-12-12T10:58:19.728Z,4.49
2022-12-12T11:00:48.945Z,4.51
2022-12-12T11:03:29.298Z,4.51
2022-12-12T11:05:56.970Z,4.52
2022-12-12T11:08:31.101Z,4.54
2022-12-12T11:11:24.091Z,4.54
2022-12-12T11:13:50.380Z,4.56
2022-12-12T11:16:24.842Z,4.56
2022-12-12T11:19:02.369Z,4.58
2022-12-12T11:21:32.737Z,4.57
2022-12-12T11:24:00.252Z,4.57
2022-12-12T11:26:28.401Z,4.55
2022-12-12T11:29:01.284Z,4.56
2022-12-12T11:31:31.236Z,4.56
2022-12-12T11:34:01.621Z,4.57
2022-12-12T11:36:32.671Z,4.58
2022-12-12T11:39:01.535Z,4.59
2022-12-12T11:41:27.953Z,4.60
2022-12-12T11:43:59.803Z,4.64
2022-12-12T11:46:29.275Z,4.64
2022-12-12T11:48:59.387Z,4.65
2022-12-12T11:51:43.820Z,4.66
2022-12-12T11:54:22.743Z,4.67
2022-12-12T11:57:06.138Z,4.67
2022-12-12T11:59:32.371Z,4.68
2022-12-12T12:02:17.010Z,4.70
2022-12-12T12:04:58.683Z,4.74
2022-12-12T12:07:46.402Z,4.76
2022-12-12T12:10:50.376Z,4.79
2022-12-12T12:13:31.759Z,4.82
2022-12-12T12:16:46.607Z,4.86
2022-12-12T12:19:19.049Z,4.88
2022-12-12T12:22:10.910Z,4.91
2022-12-12T12:24:46.370Z,4.93
2022-12-12T12:27:49.258Z,4.94
2022-12-12T12:30:20.758Z,4.96
2022-12-12T12:33:20.233Z,4.98
2022-12-12T12:36:20.942Z,4.99
2022-12-12T12:39:19.301Z,5.01
2022-12-12T12:41:59.107Z,5.02
2022-12-12T12:44:44.146Z,5.03
2022-12-12T12:47:35.837Z,5.04
2022-12-12T12:50:14.239Z,5.04
2022-12-12T12:52:53.588Z,5.06
2022-12-12T12:55:24.566Z,5.08
2022-12-12T12:57:51.855Z,5.09
2022-12-12T13:00:20.727Z,5.10
2022-12-12T13:03:11.228Z,5.10
2022-12-12T13:05:45.943Z,5.10
2022-12-12T13:08:12.919Z,5.10
2022-12-12T13:10:45.612Z,5.08
2022-12-12T13:13:26.948Z,5.09
2022-12-12T13:16:13.999Z,5.09
2022-12-12T13:18:46.192Z,5.09
2022-12-12T13:21:33.117Z,5.07
2022-12-12T13:24:05.595Z,5.07
2022-12-12T13:26:41.807Z,5.07
2022-12-12T13:29:48.497Z,5.06
2022-12-12T13:32:22.726Z,5.07
2022-12-12T13:34:53.965Z,5.05
2022-12-12T13:37:23.699Z,5.06
2022-12-12T13:40:01.345Z,5.05
2022-12-12T13:42:52.470Z,5.05
2022-12-12T13:45:37.934Z,5.06
2022-12-12T13:48:10.989Z,5.04
2022-12-12T13:50:37.514Z,5.02
2022-12-12T13:53:06.590Z,5.01
2022-12-12T13:55:35.990Z,4.99
2022-12-12T13:58:02.722Z,4.97
2022-12-12T14:00:30.900Z,4.97
2022-12-12T14:03:09.489Z,4.94
2022-12-12T14:05:44.636Z,4.93
2022-12-12T14:08:10.915Z,4.91
2022-12-12T14:10:43.262Z,4.91
2022-12-12T14:13:18.632Z,4.90
2022-12-12T14:15:47.039Z,4.88
2022-12-12T14:18:27.157Z,4.88
2022-12-12T14:21:02.206Z,4.87
2022-12-12T14:23:51.100Z,4.86
2022-12-12T14:26:23.169Z,4.84
2022-12-12T14:29:18.172Z,4.81
2022-12-12T14:32:01.395Z,4.80
2022-12-12T14:34:53.026Z,4.77
2022-12-12T14:37:38.281Z,4.73
2022-12-12T14:40:19.656Z,4.72
2022-12-12T14:43:20.567Z,4.71
2022-12-12T14:45:40.191Z,4.70
2022-12-12T14:48:18.611Z,4.68
2022-12-12T14:50:49.754Z,4.65
2022-12-12T14:53:21.731Z,4.61
2022-12-12T14:55:53.327Z,4.58
2022-12-12T14:58:22.744Z,4.56
2022-12-12T15:00:52.821Z,4.53
2022-12-12T15:03:25.736Z,4.51
2022-12-12T15:06:24.043Z,4.50
2022-12-12T15:08:52.209Z,4.48
2022-12-12T15:11:25.962Z,4.48
2022-12-12T15:13:54.702Z,4.45
2022-12-12T15:16:36.035Z,4.45
2022-12-12T15:19:03.243Z,4.42
2022-12-12T15:21:33.011Z,4.40
2022-12-12T15:23:59.996Z,4.38
2022-12-12T15:26:32.955Z,4.36
2022-12-12T15:28:59.808Z,4.34
2022-12-12T15:31:26.247Z,4.34
2022-12-12T15:33:52.704Z,4.34
2022-12-12T15:36:28.163Z,4.34
2022-12-12T15:39:14.251Z,4.32
2022-12-12T15:41:41.871Z,4.32
2022-12-12T15:44:17.524Z,4.32
2022-12-12T15:46:44.183Z,4.35
2022-12-12T15:49:37.605Z,4.35
2022-12-12T15:52:12.897Z,4.30
2022-12-12T15:54:45.974Z,4.31
2022-12-12T15:57:25.255Z,4.29
2022-12-12T15:59:55.991Z,4.28
2022-12-12T16:02:30.945Z,4.27
2022-12-12T16:05:03.025Z,4.27
2022-12-12T16:07:30.738Z,4.25
2022-12-12T16:10:02.770Z,4.24
2022-12-12T16:12:54.605Z,4.23
2022-12-12T16:15:29.342Z,4.23
2022-12-12T16:18:01.224Z,4.22
2022-12-12T16:20:30.635Z,4.20
2022-12-12T16:23:17.955Z,4.20
2022-12-12T16:25:44.303Z,4.19
2022-12-12T16:28:10.552Z,4.18
2022-12-12T16:30:38.444Z,4.17
2022-12-12T16:33:23.780Z,4.17
2022-12-12T16:35:50.669Z,4.16
2022-12-12T16:38:18.127Z,4.14
2022-12-12T16:40:47.367Z,4.13
2022-12-12T16:43:16.933Z,4.12
2022-12-12T16:45:43.935Z,4.11
2022-12-12T16:48:15.449Z,4.11
2022-12-12T16:50:42.202Z,4.11
2022-12-12T16:53:08.932Z,4.10
2022-12-12T16:55:37.498Z,4.10
2022-12-12T16:58:03.892Z,4.10
2022-12-12T17:00:30.240Z,4.09
2022-12-12T17:02:56.785Z,4.07
2022-12-12T17:05:26.088Z,4.04
2022-12-12T17:07:52.979Z,4.01
2022-12-12T17:10:21.428Z,3.96
2022-12-12T17:12:47.808Z,3.89
2022-12-12T17:15:19.699Z,3.82
2022-12-12T17:17:46.782Z,3.74
2022-12-12T17:20:14.127Z,3.67
2022-12-12T17:22:41.373Z,3.60
2022-12-12T17:25:08.418Z,3.52
2022-12-12T17:27:35.930Z,3.45
2022-12-12T17:30:02.553Z,3.38
2022-12-12T17:32:30.169Z,3.30
2022-12-12T17:34:56.878Z,3.25
2022-12-12T17:37:24.442Z,3.18
2022-12-12T17:39:50.921Z,3.12
2022-12-12T17:42:18.069Z,3.06
2022-12-12T17:44:44.715Z,3.00
2022-12-12T17:47:11.237Z,2.94
2022-12-12T17:49:37.664Z,2.87
2022-12-12T17:52:04.327Z,2.81
2022-12-12T17:54:30.627Z,2.76
2022-12-12T17:56:56.956Z,2.68
2022-12-12T17:59:23.299Z,2.61
2022-12-12T18:01:53.862Z,2.54
2022-12-12T18:04:27.411Z,2.49
2022-12-12T18:06:54.945Z,2.42
2022-12-12T18:09:21.336Z,2.36
2022-12-12T18:11:47.785Z,2.30
2022-12-12T18:14:15.876Z,2.23
2022-12-12T18:16:43.919Z,2.18
2022-12-12T18:19:10.906Z,2.11
2022-12-12T18:24:25.341Z,2.00
2022-12-12T18:26:53.584Z,1.93
2022-12-12T18:29:20.261Z,1.89
2022-12-12T18:31:46.610Z,1.83
2022-12-12T18:34:13.898Z,1.78
2022-12-12T18:36:40.333Z,1.75
2022-12-12T18:39:06.953Z,1.70
2022-12-12T18:41:36.587Z,1.66
2022-12-12T18:44:06.071Z,1.62
2022-12-12T18:46:40.329Z,1.58
2022-12-12T18:49:09.601Z,1.53
2022-12-12T18:51:36.438Z,1.49
2022-12-12T18:54:07.035Z,1.46
2022-12-12T18:56:37.805Z,1.43
2022-12-12T18:59:04.251Z,1.37
2022-12-12T19:01:34.371Z,1.35
2022-12-12T19:04:11.360Z,1.30
2022-12-12T19:06:40.041Z,1.27
2022-12-12T19:09:17.545Z,1.23
2022-12-12T19:11:44.594Z,1.22
2022-12-12T19:14:12.790Z,1.18
2022-12-12T19:16:39.251Z,1.14
2022-12-12T19:19:06.326Z,1.09
2022-12-12T19:21:34.849Z,1.06
2022-12-12T19:24:02.845Z,1.02
2022-12-12T19:26:30.205Z,0.99
2022-12-12T19:28:58.850Z,0.97
2022-12-12T19:31:25.850Z,0.94
2022-12-12T19:33:53.076Z,0.91
2022-12-12T19:36:24.816Z,0.87
2022-12-12T19:38:53.201Z,0.86
2022-12-12T19:41:21.720Z,0.83
2022-12-12T19:43:49.847Z,0.81
2022-12-12T19:46:19.180Z,0.78
2022-12-12T19:48:45.687Z,0.75
2022-12-12T19:51:17.677Z,0.74
2022-12-12T19:53:47.016Z,0.73
2022-12-12T19:56:15.661Z,0.70
2022-12-12T19:58:42.888Z,0.67
2022-12-12T20:01:15.189Z,0.65
2022-12-12T20:03:42.118Z,0.62
2022-12-12T20:06:10.721Z,0.60
2022-12-12T20:08:38.080Z,0.57
2022-12-12T20:11:05.804Z,0.55
2022-12-12T20:13:32.645Z,0.52
2022-12-12T20:16:09.838Z,0.50
2022-12-12T20:18:36.555Z,0.48
2022-12-12T20:21:03.532Z,0.46
2022-12-12T20:23:31.848Z,0.45
2022-12-12T20:25:58.227Z,0.42
2022-12-12T20:28:24.678Z,0.41
2022-12-12T20:30:53.528Z,0.39
2022-12-12T20:33:20.051Z,0.38
2022-12-12T20:35:46.394Z,0.37
2022-12-12T20:38:12.739Z,0.34
2022-12-12T20:40:40.267Z,0.32
2022-12-12T20:43:06.586Z,0.30
2022-12-12T20:45:36.340Z,0.30
2022-12-12T20:48:07.372Z,0.29
2022-12-12T20:50:34.197Z,0.25
2022-12-12T20:53:00.585Z,0.24
2022-12-12T20:55:27.047Z,0.21
2022-12-12T20:57:54.060Z,0.20
2022-12-12T21:00:20.610Z,0.19
2022-12-12T21:02:46.995Z,0.17
2022-12-12T21:05:13.683Z,0.15
2022-12-12T21:07:40.174Z,0.12
2022-12-12T21:10:06.782Z,0.09
2022-12-12T21:12:33.096Z,0.07
2022-12-12T21:15:02.699Z,0.06
2022-12-12T21:17:30.161Z,0.04
2022-12-12T21:19:59.454Z,0.01
2022-12-12T21:22:28.772Z,-0.03
2022-12-12T21:24:55.098Z,-0.04
2022-12-12T21:27:21.408Z,-0.07
2022-12-12T21:29:47.936Z,-0.09
2022-12-12T21:32:14.308Z,-0.11
2022-12-12T21:34:41.510Z,-0.12
2022-12-12T21:37:07.888Z,-0.13
2022-12-12T21:39:34.496Z,-0.16
2022-12-12T21:42:00.835Z,-0.18
2022-12-12T21:44:27.298Z,-0.20
2022-12-12T21:46:53.779Z,-0.22
2022-12-12T21:49:25.821Z,-0.23
2022-12-12T21:51:56.888Z,-0.25
2022-12-12T21:54:23.832Z,-0.27
2022-12-12T21:56:50.219Z,-0.28
2022-12-12T21:59:16.571Z,-0.29
2022-12-12T22:01:42.988Z,-0.31
2022-12-12T22:04:11.771Z,-0.33
2022-12-12T22:06:38.776Z,-0.35
2022-12-12T22:09:08.461Z,-0.37
2022-12-12T22:11:40.852Z,-0.40
2022-12-12T22:14:09.845Z,-0.42
2022-12-12T22:16:37.933Z,-0.44
2022-12-12T22:19:09.997Z,-0.48
2022-12-12T22:21:36.598Z,-0.52
2022-12-12T22:24:03.498Z,-0.54
2022-12-12T22:26:32.822Z,-0.56
2022-12-12T22:29:01.824Z,-0.58
2022-12-12T22:31:30.792Z,-0.61
2022-12-12T22:34:00.202Z,-0.62
2022-12-12T22:36:29.467Z,-0.64
2022-12-12T22:38:57.955Z,-0.67
2022-12-12T22:41:24.920Z,-0.69
2022-12-12T22:43:56.221Z,-0.70
2022-12-12T22:46:25.030Z,-0.72
2022-12-12T22:48:52.910Z,-0.74
2022-12-12T22:51:21.841Z,-0.75
2022-12-12T22:53:48.315Z,-0.77
2022-12-12T22:56:15.575Z,-0.80
2022-12-12T22:58:42.590Z,-0.80
2022-12-12T23:01:10.390Z,-0.83
2022-12-12T23:03:37.183Z,-0.84
2022-12-12T23:06:05.645Z,-0.86
2022-12-12T23:08:32.312Z,-0.88
2022-12-12T23:11:09.606Z,-0.89
2022-12-12T23:13:36.036Z,-0.92
2022-12-12T23:16:08.289Z,-0.93
2022-12-12T23:18:37.256Z,-0.96
2022-12-12T23:21:05.264Z,-0.98
2022-12-12T23:23:31.828Z,-1.01
2022-12-12T23:26:03.253Z,-1.03
2022-12-12T23:28:30.053Z,-1.06
2022-12-12T23:30:57.266Z,-1.07
2022-12-12T23:33:24.197Z,-1.10
2022-12-12T23:35:50.944Z,-1.12
2022-12-12T23:38:17.368Z,-1.14
2022-12-12T23:40:43.962Z,-1.16
2022-12-12T23:43:10.371Z,-1.18
2022-12-12T23:45:37.549Z,-1.21
2022-12-12T23:48:05.434Z,-1.24
2022-12-12T23:50:32.430Z,-1.25
2022-12-12T23:52:59.708Z,-1.27
2022-12-12T23:55:26.052Z,-1.30
2022-12-12T23:57:52.390Z,-1.31
